createdAt,value
2022-09-28T00:00:21.146Z,63.04
2022-09-28T00:02:48.304Z,62.93
2022-09-28T00:05:15.304Z,63.24
2022-09-28T00:07:42.140Z,62.65
2022-09-28T00:10:09.624Z,63.17
2022-09-28T00:12:37.765Z,63.64
2022-09-28T00:15:05.236Z,63.37
2022-09-28T00:17:31.835Z,63.64
2022-09-28T00:19:58.494Z,63.53
2022-09-28T00:22:25.146Z,63.15
2022-09-28T00:24:51.849Z,63.25
2022-09-28T00:27:18.557Z,63.64
2022-09-28T00:29:46.742Z,63.36
2022-09-28T00:32:13.847Z,63.33
2022-09-28T00:34:45.943Z,63.69
2022-09-28T00:37:15.005Z,63.47
2022-09-28T00:39:42.231Z,63.28
2022-09-28T00:42:14.718Z,63.80
2022-09-28T00:44:50.840Z,63.07
2022-09-28T00:47:39.499Z,63.53
2022-09-28T00:50:10.853Z,63.41
2022-09-28T00:52:42.700Z,63.49
2022-09-28T00:55:13.573Z,63.91
2022-09-28T00:57:44.053Z,63.37
2022-09-28T01:00:13.886Z,63.84
2022-09-28T01:02:41.601Z,63.97
2022-09-28T01:05:10.395Z,63.75
2022-09-28T01:07:38.087Z,63.64
2022-09-28T01:10:05.897Z,63.63
2022-09-28T01:12:32.559Z,63.92
2022-09-28T01:15:00.655Z,64.48
2022-09-28T01:17:42.904Z,64.17
2022-09-28T01:20:39.197Z,63.65
2022-09-28T01:24:03.257Z,63.77
2022-09-28T01:26:52.443Z,63.84
2022-09-28T01:29:43.813Z,63.86
2022-09-28T01:32:20.320Z,63.87
2022-09-28T01:34:56.123Z,64.27
2022-09-28T01:37:28.423Z,64.18
2022-09-28T01:39:59.010Z,63.92
2022-09-28T01:42:31.466Z,64.28
2022-09-28T01:45:04.957Z,64.34
2022-09-28T01:47:36.880Z,64.21
2022-09-28T01:50:09.848Z,63.93
2022-09-28T01:52:44.218Z,63.74
2022-09-28T01:55:14.084Z,64.37
2022-09-28T01:57:48.493Z,64.08
2022-09-28T02:00:18.929Z,64.34
2022-09-28T02:02:56.172Z,64.07
2022-09-28T02:05:34.870Z,64.62
2022-09-28T02:08:05.913Z,64.59
2022-09-28T02:10:40.395Z,63.97
2022-09-28T02:13:15.471Z,63.97
2022-09-28T02:15:48.072Z,64.36
2022-09-28T02:18:15.199Z,64.33
2022-09-28T02:20:47.228Z,64.97
2022-09-28T02:23:15.309Z,64.68
2022-09-28T02:25:47.704Z,64.37
2022-09-28T02:28:16.475Z,64.16
2022-09-28T02:30:44.703Z,64.45
2022-09-28T02:33:17.425Z,64.03
2022-09-28T02:35:44.483Z,64.09
2022-09-28T02:38:12.423Z,64.13
2022-09-28T02:40:40.014Z,64.46
2022-09-28T02:43:14.632Z,64.86
2022-09-28T02:45:59.224Z,64.76
2022-09-28T02:48:55.855Z,64.62
2022-09-28T02:51:42.434Z,64.54
2022-09-28T02:54:31.068Z,63.95
2022-09-28T02:57:12.122Z,64.49
2022-09-28T02:59:52.065Z,64.64
2022-09-28T03:02:27.614Z,64.18
2022-09-28T03:05:06.651Z,64.43
2022-09-28T03:07:36.968Z,63.77
2022-09-28T03:10:09.155Z,64.15
2022-09-28T03:12:38.264Z,63.54
2022-09-28T03:15:07.560Z,63.56
2022-09-28T03:17:36.058Z,63.79
2022-09-28T03:20:03.630Z,63.51
2022-09-28T03:22:30.437Z,63.45
2022-09-28T03:24:57.393Z,63.59
2022-09-28T03:27:25.429Z,63.72
2022-09-28T03:29:52.105Z,63.73
2022-09-28T03:32:18.931Z,64.06
2022-09-28T03:34:47.003Z,63.35
2022-09-28T03:37:13.857Z,63.30
2022-09-28T03:39:40.886Z,63.82
2022-09-28T03:42:07.545Z,63.59
2022-09-28T03:44:38.064Z,63.11
2022-09-28T03:47:07.503Z,63.92
2022-09-28T03:49:34.272Z,63.95
2022-09-28T03:52:03.265Z,63.52
2022-09-28T03:54:30.084Z,63.53
2022-09-28T03:56:56.873Z,63.32
2022-09-28T03:59:23.552Z,62.90
2022-09-28T04:01:50.952Z,63.08
2022-09-28T04:04:18.583Z,62.95
2022-09-28T04:06:45.589Z,63.55
2022-09-28T04:09:14.015Z,62.72
2022-09-28T04:11:59.684Z,62.91
2022-09-28T04:14:29.427Z,63.62
2022-09-28T04:16:56.262Z,63.52
2022-09-28T04:19:25.197Z,63.54
2022-09-28T04:22:12.117Z,63.83
2022-09-28T04:24:42.125Z,63.77
2022-09-28T04:27:27.648Z,63.28
2022-09-28T04:29:54.379Z,63.98
2022-09-28T04:32:21.590Z,63.84
2022-09-28T04:34:48.243Z,63.58
2022-09-28T04:37:14.935Z,63.76
2022-09-28T04:39:48.043Z,63.86
2022-09-28T04:42:17.758Z,64.23
2022-09-28T04:44:44.849Z,63.41
2022-09-28T04:47:12.188Z,63.08
2022-09-28T04:49:59.271Z,63.27
2022-09-28T04:52:31.155Z,63.38
2022-09-28T04:54:59.420Z,63.87
2022-09-28T04:57:26.485Z,63.86
2022-09-28T04:59:54.460Z,64.00
2022-09-28T05:02:21.152Z,63.97
2022-09-28T05:05:22.872Z,63.46
2022-09-28T05:08:26.214Z,63.96
2022-09-28T05:10:59.682Z,64.00
2022-09-28T05:13:26.783Z,64.07
2022-09-28T05:15:58.070Z,64.64
2022-09-28T05:18:28.548Z,64.57
2022-09-28T05:21:02.144Z,64.61
2022-09-28T05:23:28.874Z,65.04
2022-09-28T05:26:01.328Z,64.57
2022-09-28T05:28:30.721Z,64.91
2022-09-28T05:31:35.795Z,64.68
2022-09-28T05:34:14.161Z,64.91
2022-09-28T05:36:45.418Z,64.91
2022-09-28T05:39:12.174Z,65.01
2022-09-28T05:41:40.260Z,64.78
2022-09-28T05:44:06.969Z,65.16
2022-09-28T05:46:35.011Z,64.80
2022-09-28T05:49:01.959Z,64.40
2022-09-28T05:51:28.830Z,64.51
2022-09-28T05:53:55.846Z,64.31
2022-09-28T05:56:24.573Z,64.90
2022-09-28T05:58:53.718Z,64.30
2022-09-28T06:01:22.349Z,64.11
2022-09-28T06:03:49.224Z,64.46
2022-09-28T06:06:16.184Z,64.47
2022-09-28T06:08:46.380Z,63.64
2022-09-28T06:11:45.374Z,64.35
2022-09-28T06:14:26.120Z,64.41
2022-09-28T06:16:53.091Z,64.05
2022-09-28T06:19:19.748Z,64.26
2022-09-28T06:22:05.335Z,63.72
2022-09-28T06:24:35.861Z,63.71
2022-09-28T06:27:02.724Z,63.94
2022-09-28T06:29:31.327Z,63.90
2022-09-28T06:31:58.088Z,64.19
2022-09-28T06:34:25.142Z,63.36
2022-09-28T06:36:52.299Z,63.78
2022-09-28T06:39:19.003Z,64.11
2022-09-28T06:41:45.688Z,63.13
2022-09-28T06:44:15.555Z,63.62
2022-09-28T06:47:19.283Z,63.87
2022-09-28T06:50:12.265Z,63.86
2022-09-28T06:52:53.177Z,62.97
2022-09-28T06:55:50.776Z,63.38
2022-09-28T06:58:19.976Z,63.92
2022-09-28T07:00:51.865Z,63.76
2022-09-28T07:03:21.911Z,63.86
2022-09-28T07:06:00.311Z,64.25
2022-09-28T07:08:50.678Z,64.44
2022-09-28T07:11:32.684Z,65.09
2022-09-28T07:14:42.135Z,64.54
2022-09-28T07:17:13.650Z,64.75
2022-09-28T07:19:44.417Z,64.94
2022-09-28T07:22:18.501Z,65.09
2022-09-28T07:24:47.088Z,64.47
2022-09-28T07:27:32.691Z,63.70
2022-09-28T07:30:17.682Z,64.90
2022-09-28T07:32:59.524Z,63.99
2022-09-28T07:35:41.774Z,64.56
2022-09-28T07:38:11.196Z,63.61
2022-09-28T07:40:56.498Z,63.84
2022-09-28T07:43:23.539Z,63.81
2022-09-28T07:45:57.030Z,64.27
2022-09-28T07:48:24.120Z,64.70
2022-09-28T07:51:22.934Z,64.42
2022-09-28T07:54:14.759Z,65.14
2022-09-28T07:56:54.146Z,64.74
2022-09-28T07:59:44.628Z,64.96
2022-09-28T08:02:32.487Z,65.34
2022-09-28T08:04:59.732Z,64.80
2022-09-28T08:07:29.901Z,65.24
2022-09-28T08:10:03.254Z,65.19
2022-09-28T08:12:29.991Z,65.50
2022-09-28T08:15:17.225Z,65.50
2022-09-28T08:17:54.908Z,65.12
2022-09-28T08:20:41.860Z,65.37
2022-09-28T08:23:11.552Z,64.94
2022-09-28T08:25:40.295Z,64.84
2022-09-28T08:28:07.522Z,64.70
2022-09-28T08:30:42.060Z,64.56
2022-09-28T08:33:47.946Z,64.67
2022-09-28T08:36:47.289Z,65.56
2022-09-28T08:39:34.670Z,66.09
2022-09-28T08:42:41.908Z,65.78
2022-09-28T08:45:30.183Z,65.94
2022-09-28T08:48:30.787Z,66.21
2022-09-28T08:51:18.685Z,65.46
2022-09-28T08:54:09.495Z,65.42
2022-09-28T08:56:54.509Z,65.35
2022-09-28T08:59:26.345Z,65.38
2022-09-28T09:02:03.749Z,65.61
2022-09-28T09:04:34.530Z,65.47
2022-09-28T09:07:22.854Z,65.61
2022-09-28T09:10:08.722Z,66.11
2022-09-28T09:15:48.894Z,65.73
2022-09-28T09:18:37.491Z,65.72
2022-09-28T09:21:41.828Z,65.25
2022-09-28T09:24:25.345Z,65.68
2022-09-28T09:27:04.173Z,65.54
2022-09-28T09:29:45.320Z,64.91
2022-09-28T09:32:31.393Z,65.01
2022-09-28T09:35:13.465Z,64.84
2022-09-28T09:38:21.788Z,65.33
2022-09-28T09:41:18.507Z,64.79
2022-09-28T09:44:20.662Z,64.52
2022-09-28T09:46:55.748Z,64.09
2022-09-28T09:49:37.381Z,63.77
2022-09-28T09:52:12.736Z,63.55
2022-09-28T09:54:46.594Z,63.32
2022-09-28T09:57:30.629Z,62.87
2022-09-28T10:00:12.181Z,62.24
2022-09-28T10:02:50.869Z,62.37
2022-09-28T10:05:40.494Z,62.01
2022-09-28T10:08:15.560Z,61.32
2022-09-28T10:10:49.485Z,61.25
2022-09-28T10:13:18.101Z,60.84
2022-09-28T10:15:47.685Z,60.94
2022-09-28T10:18:21.708Z,61.53
2022-09-28T10:21:07.166Z,61.71
2022-09-28T10:23:50.397Z,61.34
2022-09-28T10:26:25.077Z,61.56
2022-09-28T10:28:55.788Z,61.41
2022-09-28T10:31:38.486Z,61.20
2022-09-28T10:34:14.794Z,61.24
2022-09-28T10:36:52.874Z,61.19
2022-09-28T10:39:28.077Z,61.12
2022-09-28T10:41:55.221Z,61.02
2022-09-28T10:44:27.339Z,61.26
2022-09-28T10:47:01.978Z,61.02
2022-09-28T10:49:44.388Z,60.61
2022-09-28T10:52:36.216Z,61.04
2022-09-28T10:55:24.065Z,60.92
2022-09-28T10:57:50.852Z,60.50
2022-09-28T11:00:31.716Z,60.07
2022-09-28T11:03:21.354Z,60.53
2022-09-28T11:05:58.935Z,60.74
2022-09-28T11:08:30.113Z,61.15
2022-09-28T11:11:11.047Z,60.88
2022-09-28T11:13:46.805Z,61.03
2022-09-28T11:16:21.342Z,60.87
2022-09-28T11:18:48.474Z,60.63
2022-09-28T11:21:18.254Z,60.38
2022-09-28T11:24:01.394Z,60.38
2022-09-28T11:26:37.638Z,60.13
2022-09-28T11:29:05.750Z,59.95
2022-09-28T11:31:47.296Z,59.74
2022-09-28T11:34:31.459Z,59.68
2022-09-28T11:37:41.770Z,60.11
2022-09-28T11:40:23.107Z,60.22
2022-09-28T11:42:58.780Z,60.05
2022-09-28T11:45:40.309Z,59.81
2022-09-28T11:48:09.901Z,60.04
2022-09-28T11:50:42.647Z,59.62
2022-09-28T11:53:18.918Z,60.40
2022-09-28T11:55:51.673Z,60.12
2022-09-28T11:58:26.549Z,59.98
2022-09-28T12:00:59.555Z,59.94
2022-09-28T12:03:42.687Z,59.95
2022-09-28T12:06:15.674Z,59.94
2022-09-28T12:08:51.951Z,59.38
2022-09-28T12:11:52.350Z,60.18
2022-09-28T12:14:27.260Z,59.51
2022-09-28T12:17:08.604Z,59.74
2022-09-28T12:19:40.152Z,59.67
2022-09-28T12:22:13.915Z,59.66
2022-09-28T12:24:46.149Z,59.37
2022-09-28T12:27:17.609Z,59.20
2022-09-28T12:29:48.056Z,59.01
2022-09-28T12:32:25.661Z,59.03
2022-09-28T12:34:52.516Z,59.40
2022-09-28T12:37:33.384Z,59.51
2022-09-28T12:40:32.293Z,59.86
2022-09-28T12:43:20.045Z,59.99
2022-09-28T12:46:18.221Z,59.66
2022-09-28T12:50:07.555Z,59.61
2022-09-28T12:52:16.776Z,59.22
2022-09-28T12:55:02.551Z,59.70
2022-09-28T12:57:52.975Z,59.79
2022-09-28T13:00:25.155Z,59.76
2022-09-28T13:03:28.997Z,59.83
2022-09-28T13:06:40.526Z,59.74
2022-09-28T13:09:26.259Z,59.68
2022-09-28T13:12:13.163Z,59.19
2022-09-28T13:15:16.468Z,59.48
2022-09-28T13:17:51.359Z,59.30
2022-09-28T13:20:31.409Z,59.30
2022-09-28T13:23:11.721Z,59.46
2022-09-28T13:25:42.987Z,59.51
2022-09-28T13:28:13.090Z,59.54
2022-09-28T13:30:42.175Z,59.33
2022-09-28T13:33:18.950Z,58.67
2022-09-28T13:35:46.052Z,58.82
2022-09-28T13:38:47.155Z,58.66
2022-09-28T13:41:20.214Z,58.95
2022-09-28T13:44:23.861Z,59.06
2022-09-28T13:47:10.344Z,58.77
2022-09-28T13:49:51.186Z,58.88
2022-09-28T13:52:34.710Z,59.13
2022-09-28T13:55:17.171Z,59.42
2022-09-28T13:57:50.246Z,59.47
2022-09-28T14:00:23.231Z,59.27
2022-09-28T14:02:59.099Z,59.39
2022-09-28T14:05:44.729Z,59.43
2022-09-28T14:08:26.654Z,59.82
2022-09-28T14:10:54.604Z,59.43
2022-09-28T14:14:08.519Z,59.39
2022-09-28T14:16:36.268Z,59.65
2022-09-28T14:19:08.352Z,59.97
2022-09-28T14:21:56.281Z,60.33
2022-09-28T14:24:32.160Z,59.88
2022-09-28T14:27:36.280Z,59.79
2022-09-28T14:30:17.189Z,59.94
2022-09-28T14:32:53.055Z,60.45
2022-09-28T14:35:29.671Z,60.04
2022-09-28T14:38:19.418Z,60.01
2022-09-28T14:41:11.182Z,59.65
2022-09-28T14:43:58.548Z,59.76
2022-09-28T14:46:37.322Z,59.72
2022-09-28T14:49:26.333Z,59.95
2022-09-28T14:52:03.752Z,59.82
2022-09-28T14:54:41.736Z,60.06
2022-09-28T14:57:17.481Z,60.28
2022-09-28T14:59:46.272Z,59.90
2022-09-28T15:02:19.754Z,60.17
2022-09-28T15:04:50.826Z,60.03
2022-09-28T15:07:24.361Z,60.08
2022-09-28T15:09:52.850Z,60.23
2022-09-28T15:12:21.945Z,60.40
2022-09-28T15:14:53.623Z,60.37
2022-09-28T15:17:23.327Z,60.94
2022-09-28T15:20:11.369Z,60.70
2022-09-28T15:22:45.729Z,60.98
2022-09-28T15:25:14.847Z,60.91
2022-09-28T15:27:41.539Z,61.11
2022-09-28T15:30:25.426Z,60.57
2022-09-28T15:32:54.668Z,60.85
2022-09-28T15:35:22.152Z,60.52
2022-09-28T15:37:52.385Z,60.88
2022-09-28T15:40:25.427Z,60.74
2022-09-28T15:42:54.827Z,60.71
2022-09-28T15:45:28.689Z,60.78
2022-09-28T15:48:18.902Z,60.72
2022-09-28T15:50:59.456Z,60.68
2022-09-28T15:53:27.999Z,60.77
2022-09-28T15:56:01.950Z,60.67
2022-09-28T15:58:29.139Z,60.76
2022-09-28T16:01:36.533Z,60.77
2022-09-28T16:04:38.666Z,60.88
2022-09-28T16:07:18.547Z,60.67
2022-09-28T16:10:30.853Z,60.73
2022-09-28T16:13:08.334Z,60.52
2022-09-28T16:15:37.162Z,60.43
2022-09-28T16:18:06.890Z,60.54
2022-09-28T16:20:36.539Z,59.99
2022-09-28T16:23:09.824Z,60.92
2022-09-28T16:25:39.610Z,61.00
2022-09-28T16:28:07.163Z,61.03
2022-09-28T16:30:34.714Z,60.93
2022-09-28T16:33:03.408Z,60.89
2022-09-28T16:35:32.050Z,61.17
2022-09-28T16:38:11.907Z,61.34
2022-09-28T16:40:49.750Z,61.26
2022-09-28T16:43:20.614Z,61.33
2022-09-28T16:45:52.313Z,61.57
2022-09-28T16:48:22.360Z,61.92
2022-09-28T16:50:54.036Z,62.23
2022-09-28T16:53:40.744Z,61.94
2022-09-28T16:56:11.050Z,61.98
2022-09-28T16:58:39.019Z,62.14
2022-09-28T17:01:11.017Z,62.10
2022-09-28T17:03:38.101Z,62.02
2022-09-28T17:06:08.260Z,62.00
2022-09-28T17:08:35.865Z,61.97
2022-09-28T17:11:15.519Z,62.34
2022-09-28T17:13:47.255Z,62.39
2022-09-28T17:16:16.603Z,62.41
2022-09-28T17:18:45.465Z,62.42
2022-09-28T17:21:15.827Z,62.99
2022-09-28T17:23:43.726Z,62.72
2022-09-28T17:26:18.093Z,62.73
2022-09-28T17:28:46.978Z,63.21
2022-09-28T17:31:16.500Z,63.07
2022-09-28T17:33:43.750Z,63.31
2022-09-28T17:36:15.016Z,62.53
2022-09-28T17:38:42.848Z,62.43
2022-09-28T17:41:11.734Z,62.49
2022-09-28T17:43:38.783Z,62.20
2022-09-28T17:46:15.876Z,62.26
2022-09-28T17:48:46.080Z,61.83
2022-09-28T17:51:13.398Z,62.02
2022-09-28T17:53:40.083Z,61.87
2022-09-28T17:56:07.861Z,61.90
2022-09-28T17:58:34.585Z,61.58
2022-09-28T18:01:01.697Z,61.65
2022-09-28T18:03:30.519Z,61.79
2022-09-28T18:06:01.442Z,62.13
2022-09-28T18:08:28.692Z,61.93
2022-09-28T18:10:58.619Z,61.74
2022-09-28T18:13:25.618Z,61.67
2022-09-28T18:15:53.153Z,61.51
2022-09-28T18:18:20.501Z,61.27
2022-09-28T18:20:48.647Z,61.75
2022-09-28T18:23:15.524Z,61.39
2022-09-28T18:25:43.512Z,61.61
2022-09-28T18:28:12.900Z,61.44
2022-09-28T18:30:42.142Z,61.48
2022-09-28T18:33:09.752Z,61.46
2022-09-28T18:35:37.041Z,61.56
2022-09-28T18:38:06.432Z,61.16
2022-09-28T18:40:34.495Z,61.19
2022-09-28T18:43:02.526Z,61.23
2022-09-28T18:45:29.766Z,61.05
2022-09-28T18:47:57.798Z,61.13
2022-09-28T18:50:24.538Z,61.64
2022-09-28T18:52:51.548Z,61.43
2022-09-28T18:55:20.954Z,61.18
2022-09-28T18:57:47.695Z,61.39
2022-09-28T19:00:15.611Z,61.18
2022-09-28T19:02:43.883Z,61.49
2022-09-28T19:05:11.667Z,61.27
2022-09-28T19:07:38.500Z,61.13
2022-09-28T19:10:06.365Z,61.29
2022-09-28T19:12:34.642Z,61.24
2022-09-28T19:15:01.887Z,61.35
2022-09-28T19:17:29.139Z,61.33
2022-09-28T19:19:55.869Z,61.27
2022-09-28T19:22:22.960Z,61.41
2022-09-28T19:24:50.033Z,61.23
2022-09-28T19:27:17.371Z,61.47
2022-09-28T19:29:47.750Z,61.01
2022-09-28T19:32:16.243Z,61.16
2022-09-28T19:34:43.981Z,61.15
2022-09-28T19:37:11.001Z,61.30
2022-09-28T19:39:38.013Z,61.56
2022-09-28T19:42:08.746Z,61.48
2022-09-28T19:44:37.215Z,61.53
2022-09-28T19:47:21.835Z,61.88
2022-09-28T19:49:49.706Z,62.01
2022-09-28T19:52:20.582Z,62.03
2022-09-28T19:54:57.630Z,61.80
2022-09-28T19:57:26.325Z,62.37
2022-09-28T19:59:56.689Z,62.28
2022-09-28T20:02:28.210Z,62.16
2022-09-28T20:04:54.985Z,62.21
2022-09-28T20:07:21.805Z,62.07
2022-09-28T20:09:48.891Z,62.39
2022-09-28T20:12:16.382Z,61.92
2022-09-28T20:14:43.970Z,62.25
2022-09-28T20:17:11.314Z,62.30
2022-09-28T20:19:40.662Z,62.29
2022-09-28T20:22:07.430Z,62.69
2022-09-28T20:24:34.472Z,62.44
2022-09-28T20:27:01.806Z,62.62
2022-09-28T20:29:28.817Z,62.47
2022-09-28T20:31:56.496Z,62.55
2022-09-28T20:34:23.604Z,62.04
2022-09-28T20:36:52.015Z,61.91
2022-09-28T20:39:19.128Z,62.03
2022-09-28T20:41:47.914Z,61.64
2022-09-28T20:44:16.735Z,62.24
2022-09-28T20:46:44.858Z,61.72
2022-09-28T20:49:11.814Z,61.76
2022-09-28T20:51:46.418Z,61.85
2022-09-28T20:54:23.694Z,61.99
2022-09-28T20:56:54.148Z,61.88
2022-09-28T20:59:25.103Z,61.90
2022-09-28T21:01:56.335Z,61.75
2022-09-28T21:04:23.339Z,61.92
2022-09-28T21:06:51.753Z,62.02
2022-09-28T21:09:20.682Z,61.90
2022-09-28T21:11:48.162Z,61.88
2022-09-28T21:14:16.549Z,62.07
2022-09-28T21:16:47.103Z,62.28
2022-09-28T21:21:55.126Z,62.55
2022-09-28T21:24:26.512Z,62.22
2022-09-28T21:29:36.187Z,62.54
2022-09-28T21:32:03.848Z,62.11
2022-09-28T21:34:30.661Z,62.46
2022-09-28T21:36:57.830Z,62.49
2022-09-28T21:39:26.365Z,62.15
2022-09-28T21:41:53.407Z,62.16
2022-09-28T21:44:21.958Z,62.71
2022-09-28T21:46:49.176Z,62.43
2022-09-28T21:49:17.827Z,61.88
2022-09-28T21:51:47.096Z,62.21
2022-09-28T21:54:15.210Z,61.91
2022-09-28T21:56:44.172Z,62.08
2022-09-28T21:59:11.623Z,62.05
2022-09-28T22:01:38.636Z,62.08
2022-09-28T22:04:05.945Z,62.26
2022-09-28T22:06:32.647Z,62.45
2022-09-28T22:08:59.927Z,61.84
2022-09-28T22:11:28.643Z,61.97
2022-09-28T22:13:58.576Z,62.22
2022-09-28T22:16:28.080Z,61.97
2022-09-28T22:18:55.108Z,61.85
2022-09-28T22:21:24.774Z,62.56
2022-09-28T22:23:51.820Z,62.09
2022-09-28T22:26:21.033Z,62.22
2022-09-28T22:28:50.188Z,62.27
2022-09-28T22:31:21.079Z,62.24
2022-09-28T22:33:49.992Z,61.92
2022-09-28T22:36:17.360Z,62.08
2022-09-28T22:38:44.797Z,62.09
2022-09-28T22:41:12.162Z,62.14
2022-09-28T22:43:41.325Z,61.98
2022-09-28T22:46:10.493Z,62.14
2022-09-28T22:48:38.714Z,62.32
2022-09-28T22:51:07.236Z,61.86
2022-09-28T22:53:34.742Z,62.28
2022-09-28T22:56:05.001Z,61.99
2022-09-28T22:58:32.014Z,62.53
2022-09-28T23:01:05.513Z,62.35
2022-09-28T23:03:32.901Z,62.05
2022-09-28T23:06:02.531Z,62.03
2022-09-28T23:08:29.482Z,62.13
2022-09-28T23:10:56.558Z,61.88
2022-09-28T23:13:23.378Z,62.02
2022-09-28T23:15:56.805Z,62.21
2022-09-28T23:18:24.480Z,62.33
2022-09-28T23:20:54.819Z,62.32
2022-09-28T23:23:23.733Z,62.32
2022-09-28T23:25:51.055Z,62.90
2022-09-28T23:28:18.042Z,62.65
2022-09-28T23:30:44.865Z,62.42
2022-09-28T23:33:13.098Z,62.59
2022-09-28T23:35:40.111Z,62.17
2022-09-28T23:38:08.519Z,62.62
2022-09-28T23:40:36.672Z,62.22
2022-09-28T23:43:03.441Z,62.03
2022-09-28T23:45:30.191Z,62.24
2022-09-28T23:47:56.850Z,62.15
2022-09-28T23:50:24.032Z,62.62
2022-09-28T23:52:51.228Z,62.27
2022-09-28T23:55:19.054Z,62.50
2022-09-28T23:57:47.273Z,61.94
